sensor_id;sensor_type;location;lat;lon;timestamp;P1;durP1;ratioP1;P2;durP2;ratioP2
59336;SDS011;45115;52.002;4.686;2023-08-24T00:01:30;14.80;;;5.82;;
59336;SDS011;45115;52.002;4.686;2023-08-24T00:03:57;9.02;;;4.63;;
59336;SDS011;45115;52.002;4.686;2023-08-24T00:06:23;13.00;;;5.45;;
59336;SDS011;45115;52.002;4.686;2023-08-24T00:08:50;9.05;;;4.72;;
59336;SDS011;45115;52.002;4.686;2023-08-24T00:11:17;10.32;;;5.15;;
59336;SDS011;45115;52.002;4.686;2023-08-24T00:13:43;8.93;;;4.65;;
59336;SDS011;45115;52.002;4.686;2023-08-24T00:16:15;10.90;;;4.93;;
59336;SDS011;45115;52.002;4.686;2023-08-24T00:18:42;8.55;;;5.22;;
59336;SDS011;45115;52.002;4.686;2023-08-24T00:21:10;9.60;;;4.80;;
59336;SDS011;45115;52.002;4.686;2023-08-24T00:23:37;11.35;;;5.30;;
59336;SDS011;45115;52.002;4.686;2023-08-24T00:26:03;13.38;;;5.43;;
59336;SDS011;45115;52.002;4.686;2023-08-24T00:28:30;11.63;;;5.15;;
59336;SDS011;45115;52.002;4.686;2023-08-24T00:30:57;11.25;;;5.13;;
59336;SDS011;45115;52.002;4.686;2023-08-24T00:33:27;10.60;;;5.40;;
59336;SDS011;45115;52.002;4.686;2023-08-24T00:35:58;10.38;;;5.53;;
59336;SDS011;45115;52.002;4.686;2023-08-24T00:38:26;8.35;;;5.18;;
59336;SDS011;45115;52.002;4.686;2023-08-24T00:40:52;8.88;;;5.00;;
59336;SDS011;45115;52.002;4.686;2023-08-24T00:43:20;10.90;;;4.80;;
59336;SDS011;45115;52.002;4.686;2023-08-24T00:45:49;12.50;;;5.88;;
59336;SDS011;45115;52.002;4.686;2023-08-24T00:48:16;11.10;;;5.30;;
59336;SDS011;45115;52.002;4.686;2023-08-24T00:50:44;10.70;;;5.25;;
59336;SDS011;45115;52.002;4.686;2023-08-24T00:53:11;11.27;;;5.05;;
59336;SDS011;45115;52.002;4.686;2023-08-24T00:55:38;9.48;;;5.25;;
59336;SDS011;45115;52.002;4.686;2023-08-24T00:58:05;11.95;;;5.57;;
59336;SDS011;45115;52.002;4.686;2023-08-24T01:00:32;10.43;;;5.63;;
59336;SDS011;45115;52.002;4.686;2023-08-24T01:03:01;11.77;;;6.00;;
59336;SDS011;45115;52.002;4.686;2023-08-24T01:05:28;10.32;;;5.45;;
59336;SDS011;45115;52.002;4.686;2023-08-24T01:07:56;10.50;;;5.32;;
59336;SDS011;45115;52.002;4.686;2023-08-24T01:10:23;11.25;;;5.40;;
59336;SDS011;45115;52.002;4.686;2023-08-24T01:12:56;11.48;;;6.05;;
59336;SDS011;45115;52.002;4.686;2023-08-24T01:15:31;9.60;;;5.35;;
59336;SDS011;45115;52.002;4.686;2023-08-24T01:18:05;9.57;;;5.53;;
59336;SDS011;45115;52.002;4.686;2023-08-24T01:20:36;12.13;;;5.72;;
59336;SDS011;45115;52.002;4.686;2023-08-24T01:23:08;11.70;;;5.93;;
59336;SDS011;45115;52.002;4.686;2023-08-24T01:25:48;12.63;;;6.22;;
59336;SDS011;45115;52.002;4.686;2023-08-24T01:28:20;12.88;;;6.35;;
59336;SDS011;45115;52.002;4.686;2023-08-24T01:30:47;11.07;;;5.85;;
59336;SDS011;45115;52.002;4.686;2023-08-24T01:33:14;10.15;;;5.85;;
59336;SDS011;45115;52.002;4.686;2023-08-24T01:35:41;11.68;;;6.20;;
59336;SDS011;45115;52.002;4.686;2023-08-24T01:38:08;10.38;;;6.05;;
59336;SDS011;45115;52.002;4.686;2023-08-24T01:40:40;11.57;;;7.17;;
59336;SDS011;45115;52.002;4.686;2023-08-24T01:43:14;14.20;;;6.88;;
59336;SDS011;45115;52.002;4.686;2023-08-24T01:45:46;13.15;;;6.70;;
59336;SDS011;45115;52.002;4.686;2023-08-24T01:48:14;12.15;;;6.15;;
59336;SDS011;45115;52.002;4.686;2023-08-24T01:50:41;13.07;;;6.22;;
59336;SDS011;45115;52.002;4.686;2023-08-24T01:53:09;16.10;;;7.28;;
59336;SDS011;45115;52.002;4.686;2023-08-24T01:55:36;12.48;;;6.88;;
59336;SDS011;45115;52.002;4.686;2023-08-24T01:58:05;14.80;;;7.50;;
59336;SDS011;45115;52.002;4.686;2023-08-24T02:00:32;15.55;;;7.70;;
59336;SDS011;45115;52.002;4.686;2023-08-24T02:03:00;13.15;;;7.20;;
59336;SDS011;45115;52.002;4.686;2023-08-24T02:05:27;15.65;;;7.53;;
59336;SDS011;45115;52.002;4.686;2023-08-24T02:07:54;15.23;;;7.72;;
59336;SDS011;45115;52.002;4.686;2023-08-24T02:10:22;16.38;;;7.53;;
59336;SDS011;45115;52.002;4.686;2023-08-24T02:12:49;17.65;;;7.85;;
59336;SDS011;45115;52.002;4.686;2023-08-24T02:15:16;14.98;;;8.13;;
59336;SDS011;45115;52.002;4.686;2023-08-24T02:17:42;17.25;;;8.07;;
59336;SDS011;45115;52.002;4.686;2023-08-24T02:20:11;16.42;;;8.50;;
59336;SDS011;45115;52.002;4.686;2023-08-24T02:22:38;17.75;;;9.18;;
59336;SDS011;45115;52.002;4.686;2023-08-24T02:25:05;17.67;;;8.13;;
59336;SDS011;45115;52.002;4.686;2023-08-24T02:27:33;17.35;;;8.30;;
59336;SDS011;45115;52.002;4.686;2023-08-24T02:29:59;17.90;;;8.77;;
59336;SDS011;45115;52.002;4.686;2023-08-24T02:32:28;15.45;;;8.77;;
59336;SDS011;45115;52.002;4.686;2023-08-24T02:34:54;18.42;;;8.25;;
59336;SDS011;45115;52.002;4.686;2023-08-24T02:37:23;15.75;;;7.90;;
59336;SDS011;45115;52.002;4.686;2023-08-24T02:39:50;18.52;;;9.40;;
59336;SDS011;45115;52.002;4.686;2023-08-24T02:42:16;18.50;;;9.00;;
59336;SDS011;45115;52.002;4.686;2023-08-24T02:44:43;14.98;;;8.50;;
59336;SDS011;45115;52.002;4.686;2023-08-24T02:47:10;17.40;;;8.90;;
59336;SDS011;45115;52.002;4.686;2023-08-24T02:49:37;16.25;;;8.52;;
59336;SDS011;45115;52.002;4.686;2023-08-24T02:52:04;14.80;;;8.50;;
59336;SDS011;45115;52.002;4.686;2023-08-24T02:54:32;15.45;;;8.38;;
59336;SDS011;45115;52.002;4.686;2023-08-24T02:56:59;18.40;;;9.13;;
59336;SDS011;45115;52.002;4.686;2023-08-24T02:59:26;15.75;;;8.93;;
59336;SDS011;45115;52.002;4.686;2023-08-24T03:01:53;15.70;;;8.90;;
59336;SDS011;45115;52.002;4.686;2023-08-24T03:04:19;18.25;;;9.65;;
59336;SDS011;45115;52.002;4.686;2023-08-24T03:06:46;16.48;;;8.73;;
59336;SDS011;45115;52.002;4.686;2023-08-24T03:09:13;15.15;;;8.60;;
59336;SDS011;45115;52.002;4.686;2023-08-24T03:11:41;14.90;;;8.70;;
59336;SDS011;45115;52.002;4.686;2023-08-24T03:14:10;17.33;;;9.52;;
59336;SDS011;45115;52.002;4.686;2023-08-24T03:16:37;17.02;;;9.38;;
59336;SDS011;45115;52.002;4.686;2023-08-24T03:19:04;17.02;;;9.50;;
59336;SDS011;45115;52.002;4.686;2023-08-24T03:21:31;16.65;;;8.52;;
59336;SDS011;45115;52.002;4.686;2023-08-24T03:23:58;17.60;;;9.10;;
59336;SDS011;45115;52.002;4.686;2023-08-24T03:26:25;16.40;;;8.73;;
59336;SDS011;45115;52.002;4.686;2023-08-24T03:28:54;16.60;;;9.05;;
59336;SDS011;45115;52.002;4.686;2023-08-24T03:31:22;16.77;;;8.90;;
59336;SDS011;45115;52.002;4.686;2023-08-24T03:33:51;16.92;;;9.77;;
59336;SDS011;45115;52.002;4.686;2023-08-24T03:36:17;18.00;;;9.60;;
59336;SDS011;45115;52.002;4.686;2023-08-24T03:38:45;17.75;;;9.32;;
59336;SDS011;45115;52.002;4.686;2023-08-24T03:41:11;18.60;;;9.43;;
59336;SDS011;45115;52.002;4.686;2023-08-24T03:43:38;16.77;;;8.48;;
59336;SDS011;45115;52.002;4.686;2023-08-24T03:46:06;15.05;;;8.57;;
59336;SDS011;45115;52.002;4.686;2023-08-24T03:48:33;16.23;;;9.05;;
59336;SDS011;45115;52.002;4.686;2023-08-24T03:51:00;17.42;;;10.13;;
59336;SDS011;45115;52.002;4.686;2023-08-24T03:53:28;16.98;;;9.60;;
59336;SDS011;45115;52.002;4.686;2023-08-24T03:55:54;19.98;;;10.13;;
59336;SDS011;45115;52.002;4.686;2023-08-24T03:58:21;19.25;;;10.18;;
59336;SDS011;45115;52.002;4.686;2023-08-24T04:00:50;16.75;;;9.60;;
59336;SDS011;45115;52.002;4.686;2023-08-24T04:03:20;17.48;;;10.23;;
59336;SDS011;45115;52.002;4.686;2023-08-24T04:05:47;18.95;;;10.27;;
59336;SDS011;45115;52.002;4.686;2023-08-24T04:08:14;16.58;;;9.98;;
59336;SDS011;45115;52.002;4.686;2023-08-24T04:10:41;18.77;;;9.85;;
59336;SDS011;45115;52.002;4.686;2023-08-24T04:13:08;16.08;;;8.95;;
59336;SDS011;45115;52.002;4.686;2023-08-24T04:15:35;16.88;;;9.60;;
59336;SDS011;45115;52.002;4.686;2023-08-24T04:18:02;19.00;;;9.55;;
59336;SDS011;45115;52.002;4.686;2023-08-24T04:20:31;15.65;;;9.23;;
59336;SDS011;45115;52.002;4.686;2023-08-24T04:22:58;16.60;;;9.45;;
59336;SDS011;45115;52.002;4.686;2023-08-24T04:25:25;17.30;;;9.38;;
59336;SDS011;45115;52.002;4.686;2023-08-24T04:27:51;18.23;;;9.40;;
59336;SDS011;45115;52.002;4.686;2023-08-24T04:30:18;17.35;;;10.27;;
59336;SDS011;45115;52.002;4.686;2023-08-24T04:32:45;19.33;;;10.27;;
59336;SDS011;45115;52.002;4.686;2023-08-24T04:35:11;18.35;;;9.38;;
59336;SDS011;45115;52.002;4.686;2023-08-24T04:37:40;16.50;;;8.95;;
59336;SDS011;45115;52.002;4.686;2023-08-24T04:40:07;18.65;;;10.57;;
59336;SDS011;45115;52.002;4.686;2023-08-24T04:42:36;17.55;;;9.52;;
59336;SDS011;45115;52.002;4.686;2023-08-24T04:45:03;19.15;;;11.10;;
59336;SDS011;45115;52.002;4.686;2023-08-24T04:47:30;17.35;;;10.38;;
59336;SDS011;45115;52.002;4.686;2023-08-24T04:49:57;22.30;;;11.13;;
59336;SDS011;45115;52.002;4.686;2023-08-24T04:52:23;21.30;;;11.00;;
59336;SDS011;45115;52.002;4.686;2023-08-24T04:54:51;18.23;;;11.05;;
59336;SDS011;45115;52.002;4.686;2023-08-24T04:57:18;18.25;;;10.43;;
59336;SDS011;45115;52.002;4.686;2023-08-24T04:59:50;20.20;;;11.02;;
59336;SDS011;45115;52.002;4.686;2023-08-24T05:02:17;19.38;;;11.07;;
59336;SDS011;45115;52.002;4.686;2023-08-24T05:04:43;19.30;;;10.77;;
59336;SDS011;45115;52.002;4.686;2023-08-24T05:07:10;19.67;;;11.00;;
59336;SDS011;45115;52.002;4.686;2023-08-24T05:09:37;20.85;;;11.30;;
59336;SDS011;45115;52.002;4.686;2023-08-24T05:12:05;18.92;;;11.13;;
59336;SDS011;45115;52.002;4.686;2023-08-24T05:14:32;20.95;;;11.07;;
59336;SDS011;45115;52.002;4.686;2023-08-24T05:16:59;19.02;;;10.40;;
59336;SDS011;45115;52.002;4.686;2023-08-24T05:19:26;22.30;;;11.85;;
59336;SDS011;45115;52.002;4.686;2023-08-24T05:21:53;18.52;;;10.82;;
59336;SDS011;45115;52.002;4.686;2023-08-24T05:24:19;18.80;;;11.27;;
59336;SDS011;45115;52.002;4.686;2023-08-24T05:26:46;21.23;;;11.43;;
59336;SDS011;45115;52.002;4.686;2023-08-24T05:29:14;21.15;;;10.98;;
59336;SDS011;45115;52.002;4.686;2023-08-24T05:31:41;20.13;;;11.25;;
59336;SDS011;45115;52.002;4.686;2023-08-24T05:34:08;21.23;;;11.65;;
59336;SDS011;45115;52.002;4.686;2023-08-24T05:36:34;21.08;;;11.63;;
59336;SDS011;45115;52.002;4.686;2023-08-24T05:39:01;20.40;;;10.80;;
59336;SDS011;45115;52.002;4.686;2023-08-24T05:41:28;21.60;;;10.90;;
59336;SDS011;45115;52.002;4.686;2023-08-24T05:43:55;19.33;;;11.20;;
59336;SDS011;45115;52.002;4.686;2023-08-24T05:46:24;19.50;;;10.52;;
59336;SDS011;45115;52.002;4.686;2023-08-24T05:48:50;21.30;;;11.75;;
59336;SDS011;45115;52.002;4.686;2023-08-24T05:51:17;19.00;;;10.63;;
59336;SDS011;45115;52.002;4.686;2023-08-24T05:53:44;16.55;;;10.30;;
59336;SDS011;45115;52.002;4.686;2023-08-24T05:56:11;19.42;;;11.60;;
59336;SDS011;45115;52.002;4.686;2023-08-24T05:58:37;20.05;;;10.23;;
59336;SDS011;45115;52.002;4.686;2023-08-24T06:01:04;17.73;;;10.82;;
59336;SDS011;45115;52.002;4.686;2023-08-24T06:03:32;19.17;;;11.18;;
59336;SDS011;45115;52.002;4.686;2023-08-24T06:06:03;17.17;;;10.18;;
59336;SDS011;45115;52.002;4.686;2023-08-24T06:08:30;23.70;;;11.35;;
59336;SDS011;45115;52.002;4.686;2023-08-24T06:10:58;18.02;;;10.45;;
59336;SDS011;45115;52.002;4.686;2023-08-24T06:13:25;19.52;;;11.20;;
59336;SDS011;45115;52.002;4.686;2023-08-24T06:15:52;19.10;;;11.38;;
59336;SDS011;45115;52.002;4.686;2023-08-24T06:18:19;19.88;;;11.00;;
59336;SDS011;45115;52.002;4.686;2023-08-24T06:20:47;18.33;;;11.68;;
59336;SDS011;45115;52.002;4.686;2023-08-24T06:23:15;17.52;;;11.02;;
59336;SDS011;45115;52.002;4.686;2023-08-24T06:25:42;18.83;;;10.65;;
59336;SDS011;45115;52.002;4.686;2023-08-24T06:28:09;22.73;;;11.85;;
59336;SDS011;45115;52.002;4.686;2023-08-24T06:30:36;19.20;;;11.93;;
59336;SDS011;45115;52.002;4.686;2023-08-24T06:33:04;18.77;;;11.13;;
59336;SDS011;45115;52.002;4.686;2023-08-24T06:35:32;18.52;;;11.45;;
59336;SDS011;45115;52.002;4.686;2023-08-24T06:38:01;20.85;;;11.93;;
59336;SDS011;45115;52.002;4.686;2023-08-24T06:40:28;21.23;;;12.02;;
59336;SDS011;45115;52.002;4.686;2023-08-24T06:42:55;23.58;;;12.90;;
59336;SDS011;45115;52.002;4.686;2023-08-24T06:45:22;19.20;;;11.80;;
59336;SDS011;45115;52.002;4.686;2023-08-24T06:47:49;19.95;;;12.38;;
59336;SDS011;45115;52.002;4.686;2023-08-24T06:50:16;19.00;;;11.93;;
59336;SDS011;45115;52.002;4.686;2023-08-24T06:52:44;18.50;;;12.25;;
59336;SDS011;45115;52.002;4.686;2023-08-24T06:55:12;20.15;;;12.70;;
59336;SDS011;45115;52.002;4.686;2023-08-24T06:57:39;21.17;;;13.73;;
59336;SDS011;45115;52.002;4.686;2023-08-24T07:00:06;21.00;;;12.40;;
59336;SDS011;45115;52.002;4.686;2023-08-24T07:02:34;22.10;;;13.18;;
59336;SDS011;45115;52.002;4.686;2023-08-24T07:05:01;20.67;;;12.90;;
59336;SDS011;45115;52.002;4.686;2023-08-24T07:07:30;24.58;;;13.23;;
59336;SDS011;45115;52.002;4.686;2023-08-24T07:09:57;18.52;;;12.15;;
59336;SDS011;45115;52.002;4.686;2023-08-24T07:12:25;20.02;;;12.40;;
59336;SDS011;45115;52.002;4.686;2023-08-24T07:14:52;19.85;;;12.15;;
59336;SDS011;45115;52.002;4.686;2023-08-24T07:17:19;21.02;;;12.98;;
59336;SDS011;45115;52.002;4.686;2023-08-24T07:19:45;19.58;;;12.70;;
59336;SDS011;45115;52.002;4.686;2023-08-24T07:22:12;19.38;;;12.57;;
59336;SDS011;45115;52.002;4.686;2023-08-24T07:24:39;19.20;;;12.05;;
59336;SDS011;45115;52.002;4.686;2023-08-24T07:27:06;20.95;;;13.00;;
59336;SDS011;45115;52.002;4.686;2023-08-24T07:29:35;18.10;;;11.55;;
59336;SDS011;45115;52.002;4.686;2023-08-24T07:32:01;20.25;;;13.18;;
59336;SDS011;45115;52.002;4.686;2023-08-24T07:34:28;17.45;;;11.57;;
59336;SDS011;45115;52.002;4.686;2023-08-24T07:36:55;17.83;;;11.85;;
59336;SDS011;45115;52.002;4.686;2023-08-24T07:39:22;19.55;;;13.18;;
59336;SDS011;45115;52.002;4.686;2023-08-24T07:41:48;18.08;;;12.20;;
59336;SDS011;45115;52.002;4.686;2023-08-24T07:44:15;17.23;;;11.52;;
59336;SDS011;45115;52.002;4.686;2023-08-24T07:46:43;18.38;;;11.10;;
59336;SDS011;45115;52.002;4.686;2023-08-24T07:49:10;17.42;;;11.07;;
59336;SDS011;45115;52.002;4.686;2023-08-24T07:51:37;18.40;;;12.02;;
59336;SDS011;45115;52.002;4.686;2023-08-24T07:54:03;19.63;;;11.43;;
59336;SDS011;45115;52.002;4.686;2023-08-24T07:56:32;17.63;;;11.25;;
59336;SDS011;45115;52.002;4.686;2023-08-24T07:58:59;19.42;;;12.10;;
59336;SDS011;45115;52.002;4.686;2023-08-24T08:01:26;16.75;;;11.40;;
59336;SDS011;45115;52.002;4.686;2023-08-24T08:04:03;17.17;;;11.32;;
59336;SDS011;45115;52.002;4.686;2023-08-24T08:06:32;17.30;;;11.30;;
59336;SDS011;45115;52.002;4.686;2023-08-24T08:08:59;17.17;;;11.88;;
59336;SDS011;45115;52.002;4.686;2023-08-24T08:11:25;17.02;;;11.30;;
59336;SDS011;45115;52.002;4.686;2023-08-24T08:13:52;20.27;;;12.40;;
59336;SDS011;45115;52.002;4.686;2023-08-24T08:16:19;20.83;;;12.52;;
59336;SDS011;45115;52.002;4.686;2023-08-24T08:18:46;20.83;;;11.43;;
59336;SDS011;45115;52.002;4.686;2023-08-24T08:21:16;16.63;;;11.80;;
59336;SDS011;45115;52.002;4.686;2023-08-24T08:23:44;17.85;;;11.70;;
59336;SDS011;45115;52.002;4.686;2023-08-24T08:26:11;16.88;;;11.25;;
59336;SDS011;45115;52.002;4.686;2023-08-24T08:28:39;17.35;;;11.57;;
59336;SDS011;45115;52.002;4.686;2023-08-24T08:31:09;17.25;;;11.13;;
59336;SDS011;45115;52.002;4.686;2023-08-24T08:33:36;15.30;;;10.13;;
59336;SDS011;45115;52.002;4.686;2023-08-24T08:36:03;17.98;;;12.68;;
59336;SDS011;45115;52.002;4.686;2023-08-24T08:38:31;17.90;;;11.60;;
59336;SDS011;45115;52.002;4.686;2023-08-24T08:41:01;17.60;;;12.55;;
59336;SDS011;45115;52.002;4.686;2023-08-24T08:43:29;18.95;;;12.98;;
59336;SDS011;45115;52.002;4.686;2023-08-24T08:45:56;17.25;;;12.55;;
59336;SDS011;45115;52.002;4.686;2023-08-24T08:48:25;19.33;;;13.27;;
59336;SDS011;45115;52.002;4.686;2023-08-24T08:50:52;19.42;;;12.60;;
59336;SDS011;45115;52.002;4.686;2023-08-24T08:53:21;20.17;;;13.35;;
59336;SDS011;45115;52.002;4.686;2023-08-24T08:55:51;19.20;;;13.65;;
59336;SDS011;45115;52.002;4.686;2023-08-24T08:58:19;20.40;;;13.43;;
59336;SDS011;45115;52.002;4.686;2023-08-24T09:00:47;18.35;;;12.38;;
59336;SDS011;45115;52.002;4.686;2023-08-24T09:03:17;18.40;;;12.43;;
59336;SDS011;45115;52.002;4.686;2023-08-24T09:05:44;16.88;;;11.82;;
59336;SDS011;45115;52.002;4.686;2023-08-24T09:08:13;20.40;;;13.38;;
59336;SDS011;45115;52.002;4.686;2023-08-24T09:10:40;21.35;;;13.70;;
59336;SDS011;45115;52.002;4.686;2023-08-24T09:13:09;17.48;;;12.50;;
59336;SDS011;45115;52.002;4.686;2023-08-24T09:15:35;17.52;;;12.40;;
59336;SDS011;45115;52.002;4.686;2023-08-24T09:18:02;18.92;;;13.27;;
59336;SDS011;45115;52.002;4.686;2023-08-24T09:20:29;18.70;;;12.75;;
59336;SDS011;45115;52.002;4.686;2023-08-24T09:22:56;16.90;;;12.20;;
59336;SDS011;45115;52.002;4.686;2023-08-24T09:25:23;20.38;;;13.88;;
59336;SDS011;45115;52.002;4.686;2023-08-24T09:27:55;18.63;;;12.32;;
59336;SDS011;45115;52.002;4.686;2023-08-24T09:30:24;19.40;;;13.05;;
59336;SDS011;45115;52.002;4.686;2023-08-24T09:32:55;18.00;;;12.60;;
59336;SDS011;45115;52.002;4.686;2023-08-24T09:35:26;18.98;;;13.35;;
59336;SDS011;45115;52.002;4.686;2023-08-24T09:37:53;18.55;;;13.98;;
59336;SDS011;45115;52.002;4.686;2023-08-24T09:40:23;20.17;;;14.63;;
59336;SDS011;45115;52.002;4.686;2023-08-24T09:42:50;19.13;;;13.52;;
59336;SDS011;45115;52.002;4.686;2023-08-24T09:45:17;18.17;;;12.10;;
59336;SDS011;45115;52.002;4.686;2023-08-24T09:47:50;20.48;;;15.57;;
59336;SDS011;45115;52.002;4.686;2023-08-24T09:50:18;21.95;;;14.15;;
59336;SDS011;45115;52.002;4.686;2023-08-24T09:52:45;19.05;;;13.50;;
59336;SDS011;45115;52.002;4.686;2023-08-24T09:55:14;19.52;;;15.13;;
59336;SDS011;45115;52.002;4.686;2023-08-24T09:57:47;21.55;;;15.43;;
59336;SDS011;45115;52.002;4.686;2023-08-24T10:00:19;21.98;;;15.40;;
59336;SDS011;45115;52.002;4.686;2023-08-24T10:02:51;20.27;;;14.48;;
59336;SDS011;45115;52.002;4.686;2023-08-24T10:05:20;19.88;;;14.55;;
59336;SDS011;45115;52.002;4.686;2023-08-24T10:07:49;24.02;;;16.65;;
59336;SDS011;45115;52.002;4.686;2023-08-24T10:10:18;21.90;;;16.13;;
59336;SDS011;45115;52.002;4.686;2023-08-24T10:12:46;21.85;;;15.77;;
59336;SDS011;45115;52.002;4.686;2023-08-24T10:17:43;22.67;;;15.30;;
59336;SDS011;45115;52.002;4.686;2023-08-24T10:20:12;24.10;;;16.40;;
59336;SDS011;45115;52.002;4.686;2023-08-24T10:22:40;21.75;;;15.88;;
59336;SDS011;45115;52.002;4.686;2023-08-24T10:25:08;22.17;;;16.25;;
59336;SDS011;45115;52.002;4.686;2023-08-24T10:27:36;25.45;;;17.10;;
59336;SDS011;45115;52.002;4.686;2023-08-24T10:30:08;21.15;;;15.13;;
59336;SDS011;45115;52.002;4.686;2023-08-24T10:32:37;24.05;;;17.23;;
59336;SDS011;45115;52.002;4.686;2023-08-24T10:35:06;22.80;;;16.08;;
59336;SDS011;45115;52.002;4.686;2023-08-24T10:37:34;22.65;;;17.55;;
59336;SDS011;45115;52.002;4.686;2023-08-24T10:40:01;21.73;;;17.52;;
59336;SDS011;45115;52.002;4.686;2023-08-24T10:42:42;24.35;;;17.85;;
59336;SDS011;45115;52.002;4.686;2023-08-24T10:45:11;23.58;;;17.42;;
59336;SDS011;45115;52.002;4.686;2023-08-24T10:47:45;22.52;;;17.08;;
59336;SDS011;45115;52.002;4.686;2023-08-24T10:50:13;25.45;;;18.40;;
59336;SDS011;45115;52.002;4.686;2023-08-24T10:52:43;22.77;;;17.77;;
59336;SDS011;45115;52.002;4.686;2023-08-24T10:55:23;22.67;;;16.75;;
59336;SDS011;45115;52.002;4.686;2023-08-24T10:57:55;23.85;;;17.30;;
59336;SDS011;45115;52.002;4.686;2023-08-24T11:00:24;22.35;;;16.17;;
59336;SDS011;45115;52.002;4.686;2023-08-24T11:02:52;20.20;;;15.48;;
59336;SDS011;45115;52.002;4.686;2023-08-24T11:05:20;22.42;;;17.50;;
59336;SDS011;45115;52.002;4.686;2023-08-24T11:07:52;24.58;;;17.58;;
59336;SDS011;45115;52.002;4.686;2023-08-24T11:10:21;23.80;;;17.40;;
59336;SDS011;45115;52.002;4.686;2023-08-24T11:13:07;27.92;;;17.10;;
59336;SDS011;45115;52.002;4.686;2023-08-24T11:15:39;21.65;;;15.23;;
59336;SDS011;45115;52.002;4.686;2023-08-24T11:20:55;22.92;;;16.73;;
59336;SDS011;45115;52.002;4.686;2023-08-24T11:23:24;18.90;;;13.93;;
59336;SDS011;45115;52.002;4.686;2023-08-24T11:25:52;20.75;;;15.57;;
59336;SDS011;45115;52.002;4.686;2023-08-24T11:28:22;20.15;;;15.43;;
59336;SDS011;45115;52.002;4.686;2023-08-24T11:30:49;21.10;;;15.63;;
59336;SDS011;45115;52.002;4.686;2023-08-24T11:33:16;20.63;;;16.40;;
59336;SDS011;45115;52.002;4.686;2023-08-24T11:35:53;21.00;;;15.98;;
59336;SDS011;45115;52.002;4.686;2023-08-24T11:38:20;21.95;;;15.02;;
59336;SDS011;45115;52.002;4.686;2023-08-24T11:40:48;20.70;;;14.05;;
59336;SDS011;45115;52.002;4.686;2023-08-24T11:43:20;20.25;;;15.48;;
59336;SDS011;45115;52.002;4.686;2023-08-24T11:45:48;22.13;;;16.52;;
59336;SDS011;45115;52.002;4.686;2023-08-24T11:48:15;23.40;;;15.65;;
59336;SDS011;45115;52.002;4.686;2023-08-24T11:50:41;19.08;;;13.43;;
59336;SDS011;45115;52.002;4.686;2023-08-24T11:53:08;21.67;;;16.05;;
59336;SDS011;45115;52.002;4.686;2023-08-24T11:55:39;22.35;;;15.63;;
59336;SDS011;45115;52.002;4.686;2023-08-24T11:58:13;22.17;;;16.08;;
59336;SDS011;45115;52.002;4.686;2023-08-24T12:00:41;20.48;;;15.60;;
59336;SDS011;45115;52.002;4.686;2023-08-24T12:03:09;20.63;;;15.23;;
59336;SDS011;45115;52.002;4.686;2023-08-24T12:05:36;20.17;;;15.25;;
59336;SDS011;45115;52.002;4.686;2023-08-24T12:08:04;21.08;;;15.32;;
59336;SDS011;45115;52.002;4.686;2023-08-24T12:10:31;21.55;;;15.50;;
59336;SDS011;45115;52.002;4.686;2023-08-24T12:13:01;21.88;;;15.95;;
59336;SDS011;45115;52.002;4.686;2023-08-24T12:15:33;23.38;;;16.92;;
59336;SDS011;45115;52.002;4.686;2023-08-24T12:18:06;21.77;;;16.85;;
59336;SDS011;45115;52.002;4.686;2023-08-24T12:20:34;23.23;;;16.27;;
59336;SDS011;45115;52.002;4.686;2023-08-24T12:23:01;21.55;;;16.55;;
59336;SDS011;45115;52.002;4.686;2023-08-24T12:25:28;22.05;;;17.27;;
59336;SDS011;45115;52.002;4.686;2023-08-24T12:28:07;24.30;;;18.23;;
59336;SDS011;45115;52.002;4.686;2023-08-24T12:30:44;23.58;;;17.90;;
59336;SDS011;45115;52.002;4.686;2023-08-24T12:33:21;21.92;;;16.77;;
59336;SDS011;45115;52.002;4.686;2023-08-24T12:35:49;21.83;;;15.98;;
59336;SDS011;45115;52.002;4.686;2023-08-24T12:38:15;22.17;;;16.67;;
59336;SDS011;45115;52.002;4.686;2023-08-24T12:40:43;20.40;;;15.25;;
59336;SDS011;45115;52.002;4.686;2023-08-24T12:43:09;22.42;;;16.67;;
59336;SDS011;45115;52.002;4.686;2023-08-24T12:45:36;22.70;;;16.55;;
59336;SDS011;45115;52.002;4.686;2023-08-24T12:48:04;23.90;;;17.63;;
59336;SDS011;45115;52.002;4.686;2023-08-24T12:50:32;22.27;;;17.17;;
59336;SDS011;45115;52.002;4.686;2023-08-24T12:52:59;21.92;;;16.30;;
59336;SDS011;45115;52.002;4.686;2023-08-24T12:55:26;21.50;;;17.27;;
59336;SDS011;45115;52.002;4.686;2023-08-24T12:57:53;22.90;;;17.58;;
59336;SDS011;45115;52.002;4.686;2023-08-24T13:00:20;21.15;;;16.60;;
59336;SDS011;45115;52.002;4.686;2023-08-24T13:02:47;23.10;;;17.10;;
59336;SDS011;45115;52.002;4.686;2023-08-24T13:05:15;21.20;;;15.38;;
59336;SDS011;45115;52.002;4.686;2023-08-24T13:07:42;22.17;;;15.48;;
59336;SDS011;45115;52.002;4.686;2023-08-24T13:10:09;20.85;;;15.43;;
59336;SDS011;45115;52.002;4.686;2023-08-24T13:12:36;21.98;;;16.15;;
59336;SDS011;45115;52.002;4.686;2023-08-24T13:15:03;20.95;;;17.48;;
59336;SDS011;45115;52.002;4.686;2023-08-24T13:17:31;22.25;;;17.38;;
59336;SDS011;45115;52.002;4.686;2023-08-24T13:19:58;22.25;;;16.98;;
59336;SDS011;45115;52.002;4.686;2023-08-24T13:22:26;20.73;;;16.40;;
59336;SDS011;45115;52.002;4.686;2023-08-24T13:24:53;25.48;;;18.70;;
59336;SDS011;45115;52.002;4.686;2023-08-24T13:27:19;20.80;;;17.02;;
59336;SDS011;45115;52.002;4.686;2023-08-24T13:29:46;20.65;;;15.75;;
59336;SDS011;45115;52.002;4.686;2023-08-24T13:32:13;22.80;;;17.50;;
59336;SDS011;45115;52.002;4.686;2023-08-24T13:34:40;25.08;;;18.25;;
59336;SDS011;45115;52.002;4.686;2023-08-24T13:37:07;21.55;;;17.98;;
59336;SDS011;45115;52.002;4.686;2023-08-24T13:39:35;21.45;;;15.27;;
59336;SDS011;45115;52.002;4.686;2023-08-24T13:42:01;21.48;;;16.80;;
59336;SDS011;45115;52.002;4.686;2023-08-24T13:44:29;22.05;;;16.05;;
59336;SDS011;45115;52.002;4.686;2023-08-24T13:46:55;22.88;;;17.15;;
59336;SDS011;45115;52.002;4.686;2023-08-24T13:49:22;20.67;;;15.55;;
59336;SDS011;45115;52.002;4.686;2023-08-24T13:51:49;24.00;;;16.83;;
59336;SDS011;45115;52.002;4.686;2023-08-24T13:54:16;21.20;;;16.42;;
59336;SDS011;45115;52.002;4.686;2023-08-24T13:56:45;22.38;;;18.38;;
59336;SDS011;45115;52.002;4.686;2023-08-24T13:59:13;23.33;;;17.53;;
59336;SDS011;45115;52.002;4.686;2023-08-24T14:01:41;23.52;;;17.92;;
59336;SDS011;45115;52.002;4.686;2023-08-24T14:04:08;24.15;;;17.15;;
59336;SDS011;45115;52.002;4.686;2023-08-24T14:06:35;23.15;;;18.15;;
59336;SDS011;45115;52.002;4.686;2023-08-24T14:09:02;24.23;;;18.77;;
59336;SDS011;45115;52.002;4.686;2023-08-24T14:11:29;22.88;;;17.17;;
59336;SDS011;45115;52.002;4.686;2023-08-24T14:13:58;23.00;;;17.20;;
59336;SDS011;45115;52.002;4.686;2023-08-24T14:16:25;20.73;;;16.15;;
59336;SDS011;45115;52.002;4.686;2023-08-24T14:18:51;24.10;;;19.30;;
59336;SDS011;45115;52.002;4.686;2023-08-24T14:21:18;23.20;;;17.40;;
59336;SDS011;45115;52.002;4.686;2023-08-24T14:23:46;22.92;;;17.48;;
59336;SDS011;45115;52.002;4.686;2023-08-24T14:26:13;22.98;;;17.98;;
59336;SDS011;45115;52.002;4.686;2023-08-24T14:28:49;20.65;;;16.15;;
59336;SDS011;45115;52.002;4.686;2023-08-24T14:31:20;23.00;;;15.75;;
59336;SDS011;45115;52.002;4.686;2023-08-24T14:33:47;20.45;;;15.20;;
59336;SDS011;45115;52.002;4.686;2023-08-24T14:36:14;18.40;;;13.57;;